Home > Products > Valid Products > TAF

000
FTUS41 KAKQ 242323
TAFECG
TAF
KECG 242323Z 2500/2524 24007KT P6SM SKC
     FM251800 21008KT P6SM SKC=



000
FTUS41 KAKQ 242323
TAFSBY
TAF
KSBY 242323Z 2500/2524 23005KT P6SM SKC
     FM250400 00000KT P6SM SKC
     FM251400 26006KT P6SM SKC=



000
FTUS41 KAKQ 242323
TAFPHF
TAF
KPHF 242323Z 2500/2524 30007KT P6SM SKC
     FM250200 24004KT P6SM SKC
     FM251500 23007KT P6SM SKC=



000
FTUS41 KAKQ 242323
TAFRIC
TAF
KRIC 242323Z 2500/2524 24004KT P6SM SKC=



000
FTUS41 KAKQ 242323
TAFORF
TAF
KORF 242323Z 2500/2524 29004KT P6SM SKC
     FM250500 23008KT P6SM SKC
     FM251400 26006KT P6SM SKC=



000
FTUS41 KAKQ 241731
TAFECG
TAF
KECG 241731Z 2418/2518 26009KT P6SM SCT060
     FM250000 22006KT P6SM SCT060
     FM251100 25007KT P6SM SKC=



000
FTUS41 KAKQ 241731
TAFRIC
TAF
KRIC 241731Z 2418/2518 28009KT P6SM SCT070
     FM242000 25008KT P6SM BKN070
     FM250400 24005KT P6SM SKC=



000
FTUS41 KAKQ 241731
TAFPHF
TAF
KPHF 241731Z 2418/2518 29009KT P6SM SCT060
     FM242300 23005KT P6SM SCT070
     FM251200 25007KT P6SM SKC=



000
FTUS41 KAKQ 241731
TAFORF
TAF
KORF 241731Z 2418/2518 28008KT P6SM SCT060
     FM242300 23007KT P6SM SCT070
     FM251100 26007KT P6SM SKC=



000
FTUS41 KAKQ 241731
TAFSBY
TAF
KSBY 241731Z 2418/2518 30010KT P6SM SCT060
     FM250000 23003KT P6SM SCT070
     FM251200 27007KT P6SM SKC=



000
FTUS41 KAKQ 241120
TAFECG
TAF
KECG 241120Z 2412/2512 26006KT P6SM SCT060 SCT250
     FM242200 22004KT P6SM SKC=



000
FTUS41 KAKQ 241120
TAFSBY
TAF
KSBY 241120Z 2412/2512 29006KT P6SM SCT100 BKN250
     FM241500 30010KT P6SM BKN060 BKN250
     FM242300 22004KT P6SM SKC=



000
FTUS41 KAKQ 241120
TAFRIC
TAF
KRIC 241120Z 2412/2512 27004KT P6SM SCT100 SCT250
     FM241400 30008KT P6SM SCT060 SCT250
     FM242100 26007KT P6SM SCT050 SCT250
     FM250000 23003KT P6SM SKC=



000
FTUS41 KAKQ 241120
TAFORF
TAF
KORF 241120Z 2412/2512 26006KT P6SM SCT100 BKN250
     FM241400 29008KT P6SM SCT060 BKN250
     FM242300 24005KT P6SM SKC=



000
FTUS41 KAKQ 241120
TAFPHF
TAF
KPHF 241120Z 2412/2512 24005KT P6SM SCT100 BKN250
     FM241400 27007KT P6SM SCT060 BKN250
     FM242300 23005KT P6SM SKC=



000
FTUS41 KAKQ 240902 AAA
TAFPHF
TAF AMD
KPHF 240902Z 2409/2506 VRB03KT 4SM BR BKN250
      TEMPO 2409/2412 1/2SM FG OVC002
     FM241200 24005KT P6SM BKN100
     FM241500 26007KT P6SM SCT060 BKN250
     FM242200 23005KT P6SM SCT070 SCT250=



000
FTUS41 KAKQ 232331
TAFPHF
TAF
KPHF 232331Z 2400/2424 36005KT P6SM VCSH OVC100
     FM240400 VRB04KT P6SM BKN080
     FM240900 VRB04KT P6SM BKN150
      TEMPO 2409/2412 4SM BR
     FM241500 26007KT P6SM SCT200=



000
FTUS41 KAKQ 232331
TAFORF
TAF
KORF 232331Z 2400/2424 VRB03KT P6SM BKN150
     FM240500 31006KT P6SM BKN100
     FM241500 28008KT P6SM SCT250=



000
FTUS41 KAKQ 232331
TAFECG
TAF
KECG 232331Z 2400/2424 01008KT P6SM FEW030 OVC070
     FM240300 31006KT P6SM BKN060
     FM241400 27010KT P6SM SCT150=



000
FTUS41 KAKQ 232331
TAFRIC
TAF
KRIC 232331Z 2400/2424 30005KT P6SM FEW070 OVC150
     FM240100 29004KT P6SM -SHRA OVC060
     FM240300 VRB03KT P6SM SCT090 BKN200
     FM240800 29004KT 4SM BR SCT200
     FM241200 29005KT P6SM SCT200
     FM242100 26007KT P6SM SCT200=



000
FTUS41 KAKQ 232331
TAFSBY
TAF
KSBY 232331Z 2400/2424 06004KT P6SM VCSH BKN070
     FM240400 31004KT P6SM BKN060
      TEMPO 2409/2412 4SM BR
     FM241500 29007KT P6SM SCT200
     FM242300 25007KT P6SM SCT200=



000
FTUS41 KAKQ 231729
TAFSBY
TAF
KSBY 231729Z 2318/2418 02011KT P6SM VCSH OVC050
      TEMPO 2318/2322 5SM -SHRA OVC035
     FM232200 02008KT P6SM VCSH OVC060
     FM240700 33003KT P6SM OVC100
     FM241300 29007KT P6SM BKN120=



000
FTUS41 KAKQ 231729
TAFECG
TAF
KECG 231729Z 2318/2418 03015KT P6SM -RA BKN015 BKN035
     FM232000 36013KT P6SM VCSH SCT015 BKN035
     FM232300 34010KT P6SM OVC060
     FM240700 26006KT P6SM BKN100
     FM241300 27009KT P6SM FEW120 BKN250=



000
FTUS41 KAKQ 231729
TAFORF
TAF
KORF 231729Z 2318/2418 02014G21KT P6SM VCSH SCT025 BKN040
      TEMPO 2318/2322 5SM -RA BR BKN025
     FM232200 36011KT P6SM VCSH OVC040
     FM240700 29006KT P6SM BKN070 BKN200
     FM241300 28008KT P6SM SCT100 BKN200=



000
FTUS41 KAKQ 231729
TAFRIC
TAF
KRIC 231729Z 2318/2418 36008KT P6SM -SHRA OVC050
     FM232200 33005KT P6SM VCSH OVC100
     FM240700 28004KT 2SM BR SCT120
     FM241300 26005KT P6SM SCT250=



000
FTUS41 KAKQ 231729
TAFPHF
TAF
KPHF 231729Z 2318/2418 02008KT P6SM VCSH BKN035 OVC090
      TEMPO 2318/2322 5SM -RA BR BKN025
     FM232200 01011KT P6SM VCSH OVC040
     FM240700 29004KT P6SM BKN080 BKN200
     FM241300 27007KT P6SM SCT100 BKN200=



000
FTUS41 KAKQ 231440 AAA
TAFECG
TAF AMD
KECG 231440Z 2315/2412 36007KT 2SM -RA BR OVC008
     FM231530 36011KT P6SM -RA SCT010 BKN015 OVC035
     FM232200 34010KT P6SM OVC060
     FM240700 26006KT P6SM BKN200=



000
FTUS41 KAKQ 231335 AAB
TAFRIC
TAF AMD
KRIC 231335Z 2314/2412 34008KT P6SM -RA FEW010 BKN035
      TEMPO 2314/2316 3SM RA BR OVC010
     FM231800 36008KT P6SM -SHRA OVC050
     FM232200 33005KT P6SM OVC100
     FM240600 28004KT P6SM BKN200=



000
FTUS41 KAKQ 231315 AAA
TAFORF
TAF AMD
KORF 231315Z 2313/2412 01013G20KT 2SM +RA BR SCT007 BKN017 OVC024
      TEMPO 2313/2315 2SM RA BR OVC007
     FM231500 02012G18KT 5SM -RA BR OVC010
     FM231900 02011G16KT P6SM -SHRA OVC025
     FM232200 36008KT P6SM OVC060
     FM240700 27006KT P6SM BKN200=



000
FTUS41 KAKQ 231300 AAA
TAFPHF
TAF AMD
KPHF 231300Z 2313/2412 01011KT 5SM RA BR OVC025
      TEMPO 2313/2315 2SM RA BR OVC007
     FM231500 01010KT 5SM -RA BR OVC010
     FM231900 36009KT P6SM -SHRA OVC025
     FM232200 36006KT P6SM OVC060
     FM240700 27004KT P6SM BKN200=



000
FTUS41 KAKQ 231206 AAA
TAFRIC
TAF AMD
KRIC 231206Z 2312/2412 01014KT 2SM RA BR FEW005 BKN025 OVC050
      TEMPO 2312/2316 2SM RA BR OVC005
     FM231800 36008KT P6SM -SHRA OVC050
     FM232200 33005KT P6SM OVC100
     FM240600 28004KT P6SM BKN200=



000
FTUS41 KAKQ 231121
TAFECG
TAF
KECG 231121Z 2312/2412 30007KT P6SM BKN005 OVC020
      TEMPO 2312/2314 5SM -DZ BR OVC010
     FM231500 34010KT P6SM OVC008
     FM231800 35013KT P6SM -SHRA OVC015
     FM232200 34010KT P6SM OVC060
     FM240700 26006KT P6SM BKN200=



000
FTUS41 KAKQ 231121
TAFORF
TAF
KORF 231121Z 2312/2412 03007KT 4SM -RA BR BKN005 OVC020
      TEMPO 2312/2314 2SM RA BR OVC003
     FM231400 02012G18KT 5SM -RA BR OVC010
     FM231900 02011G16KT P6SM -SHRA OVC025
     FM232200 36008KT P6SM OVC060
     FM240700 27006KT P6SM BKN200=



000
FTUS41 KAKQ 231121
TAFSBY
TAF
KSBY 231121Z 2312/2412 01007KT P6SM SCT015 OVC080
      TEMPO 2312/2316 5SM -RA BR OVC015
     FM231800 02011KT P6SM OVC050
     FM232200 02008KT P6SM OVC060
     FM240700 33003KT P6SM OVC100=



000
FTUS41 KAKQ 231121
TAFRIC
TAF
KRIC 231121Z 2312/2412 01012KT 5SM -RA BKN007 OVC050
      TEMPO 2312/2316 2SM RA BR OVC005
     FM231800 36008KT P6SM -SHRA OVC050
     FM232200 33005KT P6SM OVC100
     FM240600 28004KT P6SM BKN200=



000
FTUS41 KAKQ 231121
TAFPHF
TAF
KPHF 231121Z 2312/2412 02007KT 5SM -RA BR BKN005 OVC015
      TEMPO 2312/2314 2SM RA BR OVC003
     FM231500 01010KT 5SM -RA BR OVC010
     FM231900 36009KT P6SM -SHRA OVC025
     FM232200 36006KT P6SM OVC060
     FM240700 27004KT P6SM BKN200=



000
FTUS41 KAKQ 230821 AAD
TAFRIC
TAF AMD
KRIC 230821Z 2308/2406 35008KT 3SM -RA BR BKN005 OVC012
      TEMPO 2308/2312 1SM -RA BR OVC003
     FM231300 01008KT 4SM -RA BR OVC007
     FM231800 36007KT P6SM -SHRA OVC030
     FM232200 33005KT P6SM OVC070=



000
FTUS41 KAKQ 230545 RRA
TAFORF
TAF
KORF 230545Z 2306/2406 33005KT 5SM -RA BR SCT005 OVC015
      TEMPO 2306/2310 2SM -RA BR OVC005
     FM231300 03011KT 5SM -RA BR OVC007
     FM231900 02011KT P6SM -SHRA OVC025
     FM232200 01007KT P6SM OVC050=



000
FTUS41 KAKQ 230545 RRA
TAFPHF
TAF
KPHF 230545Z 2306/2406 33005KT 5SM -RA BR BKN005 OVC015
      TEMPO 2306/2310 2SM -RA BR OVC005
     FM231300 02008KT 4SM -RA BR OVC007
     FM231900 36009KT P6SM -SHRA OVC025
     FM232200 35005KT P6SM OVC070=



000
FTUS41 KAKQ 230545 RRA
TAFSBY
TAF
KSBY 230545Z 2306/2406 04005KT P6SM SCT008 OVC030
      TEMPO 2306/2310 4SM -RA BR OVC008
     FM231300 03007KT P6SM OVC025
     FM231800 02010KT P6SM BKN035
     FM232200 02006KT P6SM OVC060=



000
FTUS41 KAKQ 230545 RRA
TAFECG
TAF
KECG 230545Z 2306/2406 30006KT P6SM BKN009 OVC030
      TEMPO 2306/2310 5SM -DZ BR OVC006
     FM231300 33010KT P6SM OVC008
     FM231800 35012KT P6SM -SHRA OVC015
     FM232200 33008KT P6SM OVC050=



000
FTUS41 KAKQ 230545 RRA
TAFRIC
TAF
KRIC 230545Z 2306/2406 34006KT 4SM -RA BR BKN005 OVC015
      TEMPO 2306/2310 1SM -RA BR OVC003
     FM231300 01008KT 4SM -RA BR OVC007
     FM231800 36007KT P6SM -SHRA OVC030
     FM232200 33005KT P6SM OVC070=



000
FTUS41 KAKQ 230210 AAB
TAFRIC
TAF AMD
KRIC 230210Z 2302/2324 34006KT 2SM -RA BR OVC005
     FM230500 35005KT 1 1/2SM -RA BR OVC003
     FM231300 35005KT 4SM -SHRA BR OVC010
     FM231800 35007KT P6SM -SHRA OVC035
     FM232200 33005KT P6SM OVC070=



000
FTUS41 KAKQ 230035 AAA
TAFRIC
TAF AMD
KRIC 230035Z 2301/2324 34006KT 4SM -DZ BR SCT008 OVC025
      TEMPO 2301/2303 2SM -DZ BR SCT007 OVC012
     FM230300 VRB03KT 3SM -DZ BR OVC008
     FM230800 34004KT 3SM -RA BR OVC004
      TEMPO 2309/2311 2SM -RA BR
     FM231300 35005KT 4SM -SHRA BR OVC010
     FM231800 35007KT P6SM -SHRA OVC035
     FM232200 33005KT P6SM OVC070=



000
FTUS41 KAKQ 222333
TAFORF
TAF
KORF 222333Z 2300/2324 35008KT 6SM -SHRA SCT015 OVC030
      TEMPO 2301/2302 BKN015 OVC030
     FM230200 01007KT 4SM BR OVC012
     FM230400 02007KT 2SM -DZ BR OVC008
     FM230800 03011KT 2SM -RA BR OVC003
     FM231500 02013KT P6SM OVC010
     FM231900 34011KT P6SM OVC025
     FM232100 30010KT P6SM OVC040=



000
FTUS41 KAKQ 222333
TAFPHF
TAF
KPHF 222333Z 2300/2324 01007KT 6SM -SHRA BR SCT015 OVC035
      TEMPO 2300/2303 BKN015 OVC030
     FM230300 01005KT 5SM -RA BR OVC010
     FM230800 01007KT 2SM -RADZ OVC004
     FM231300 02008KT 3SM -SHRA OVC008
     FM231500 34010KT P6SM OVC015
     FM232000 31008KT P6SM OVC070=



000
FTUS41 KAKQ 222333
TAFECG
TAF
KECG 222333Z 2300/2324 01006KT 6SM BR VCSH SCT015 OVC030
      TEMPO 2300/2303 4SM -RA BR
     FM230300 34006KT 4SM BR OVC010
     FM230500 34006KT 3SM -DZ BR OVC008
     FM230800 34007KT 2SM -RA BR OVC008
     FM231200 34007KT P6SM OVC008
     FM231500 35008KT P6SM OVC015
     FM232000 35010KT P6SM OVC040=



000
FTUS41 KAKQ 222333
TAFSBY
TAF
KSBY 222333Z 2300/2324 04006KT P6SM -SHRA SCT007 OVC015
      TEMPO 2300/2303 4SM -RA BR OVC007
     FM230300 01004KT 3SM -RA BR OVC007
     FM230500 01004KT 3SM -DZ BR OVC003
     FM231300 01007KT P6SM OVC025
     FM231500 03008KT P6SM BKN035
     FM232200 02006KT P6SM -SHRA OVC060=



000
FTUS41 KAKQ 222333
TAFRIC
TAF
KRIC 222333Z 2300/2324 36006KT P6SM SCT015 OVC030
      TEMPO 2300/2303 BKN015 OVC030
     FM230300 VRB03KT 6SM -DZ BR OVC008
     FM230800 34004KT 3SM -RA BR OVC004
      TEMPO 2309/2311 2SM -RA BR
     FM231300 35005KT 4SM -SHRA BR OVC010
     FM231800 35007KT P6SM -SHRA OVC035
     FM232200 33005KT P6SM OVC070=



000
FTUS41 KAKQ 221740 CCA
TAFECG
TAF COR
KECG 221740Z 2218/2318 36008KT P6SM BKN015 OVC025
      TEMPO 2218/2220 2SM -RA BR OVC010
     FM230000 36007KT P6SM OVC010
     FM230200 35008KT P6SM OVC007=



000
FTUS41 KAKQ 221733
TAFSBY
TAF
KSBY 221733Z 2218/2318 35006KT P6SM SCT007 OVC012
      TEMPO 2219/2221 4SM -RA BR OVC007
     FM230000 01004KT 5SM -RA BR OVC008
     FM231000 04006KT 5SM BR SCT010 BKN050=



000
FTUS41 KAKQ 221733
TAFRIC
TAF
KRIC 221733Z 2218/2318 35009KT P6SM SCT012 BKN025
      TEMPO 2219/2223 5SM -SHRA BR OVC010
     FM230000 36005KT P6SM OVC010
     FM230300 36005KT 5SM -RA BR OVC005
     FM231400 01008KT P6SM SCT009 BKN015=



000
FTUS41 KAKQ 221733
TAFORF
TAF
KORF 221733Z 2218/2318 01009KT P6SM OVC015
      TEMPO 2218/2221 4SM -RA BR OVC010
     FM230000 02007KT P6SM OVC008
     FM230500 03007KT 4SM -RA BR OVC007
     FM231500 04011KT P6SM SCT010 BKN025=



000
FTUS41 KAKQ 221733
TAFECG
TAF
KECG 221733Z 2218/2318 34008KT P6SM OVC030
      TEMPO 2221/2224 5SM -RA BR OVC015
     FM230000 36007KT P6SM OVC010
     FM230200 35008KT P6SM OVC007=



000
FTUS41 KAKQ 221733
TAFPHF
TAF
KPHF 221733Z 2218/2318 35007KT P6SM BKN012 OVC025
      TEMPO 2218/2222 4SM -RA BR OVC010
     FM230000 01005KT P6SM OVC008
     FM230400 02006KT 4SM -RA BR OVC006
     FM231500 03009KT P6SM SCT010 BKN030=



000
FTUS41 KAKQ 221559 AAA
TAFECG
TAF AMD
KECG 221559Z 2216/2312 35008KT P6SM OVC025
     FM230000 36007KT P6SM OVC008
     FM230600 35008KT P6SM OVC005=



000
FTUS41 KAKQ 221414 AAA
TAFORF
TAF AMD
KORF 221414Z 2214/2312 01010KT P6SM OVC012
      TEMPO 2214/2218 4SM -RA BR OVC008
     FM221800 02009KT 5SM -RA BR OVC010
     FM230000 02007KT P6SM OVC010=



000
FTUS41 KAKQ 221412 AAA
TAFSBY
TAF AMD
KSBY 221412Z 2214/2312 34008KT P6SM OVC008
      TEMPO 2215/2217 4SM -RA BR OVC006
     FM221700 35006KT 4SM -RA BR OVC006
     FM230000 01004KT 5SM -RA BR OVC010
     FM230600 36004KT 5SM BR OVC005=



000
FTUS41 KAKQ 221139
TAFORF
TAF
KORF 221139Z 2212/2312 35006KT P6SM OVC008
      TEMPO 2212/2216 OVC012
     FM221800 02009KT 5SM -RA BR OVC010
     FM230000 02007KT P6SM OVC010=



000
FTUS41 KAKQ 221139
TAFECG
TAF
KECG 221139Z 2212/2312 34008KT P6SM OVC015
     FM230000 36007KT P6SM OVC008
     FM230600 35008KT P6SM OVC005=



000
FTUS41 KAKQ 221139
TAFPHF
TAF
KPHF 221139Z 2212/2312 34006KT P6SM OVC008
      TEMPO 2212/2216 OVC011
     FM221800 01007KT 4SM -RA BR OVC008
     FM230000 01005KT P6SM OVC010=



000
FTUS41 KAKQ 221139
TAFSBY
TAF
KSBY 221139Z 2212/2312 34008KT 2SM -RA BR OVC004
      TEMPO 2212/2216 5SM -DZ BR OVC006
     FM221700 35006KT 4SM -RA BR OVC006
     FM230000 01004KT 5SM -RA BR OVC010
     FM230600 36004KT 5SM BR OVC005=



000
FTUS41 KAKQ 221139
TAFRIC
TAF
KRIC 221139Z 2212/2312 35006KT P6SM OVC007
      TEMPO 2212/2216 5SM -RA BR OVC005
     FM221800 36007KT P6SM -RA OVC012
     FM230000 36005KT P6SM OVC010
     FM230600 36005KT P6SM OVC005=



000
FTUS41 KAKQ 220847 AAA
TAFRIC
TAF AMD
KRIC 220847Z 2209/2306 35007KT P6SM OVC006
      TEMPO 2209/2213 2SM BR OVC003
     FM221500 34006KT 4SM BR OVC008
     FM221800 36007KT P6SM -RA OVC015
     FM230000 36005KT P6SM OVC010=



000
FTUS41 KAKQ 220532
TAFSBY
TAF
KSBY 220532Z 2206/2306 35006KT 4SM -RA BR BKN005 OVC010
      TEMPO 2206/2210 1SM BR OVC003
     FM221400 01007KT 3SM -RA BR OVC006
     FM221700 36006KT 4SM -RA BR OVC008
     FM230000 01004KT 5SM -RA BR OVC010=



000
FTUS41 KAKQ 220532
TAFECG
TAF
KECG 220532Z 2206/2306 31006KT P6SM BKN015
      TEMPO 2206/2210 4SM BR OVC008
     FM221400 33007KT P6SM OVC010
     FM221800 36009KT P6SM OVC015
     FM230000 36007KT P6SM OVC010=



000
FTUS41 KAKQ 220532
TAFORF
TAF
KORF 220532Z 2206/2306 35007KT P6SM OVC010
      TEMPO 2206/2210 3SM BR OVC005
     FM221400 36007KT P6SM OVC008
     FM221800 02009KT 5SM -RA BR OVC010
     FM230000 02007KT P6SM OVC010=



000
FTUS41 KAKQ 220532
TAFPHF
TAF
KPHF 220532Z 2206/2306 33007KT P6SM OVC008
      TEMPO 2206/2210 3SM BR OVC004
     FM221400 34006KT 5SM BR OVC007
     FM221800 01007KT 4SM -RA BR OVC008
     FM230000 02005KT P6SM OVC010=



000
FTUS41 KAKQ 220532
TAFRIC
TAF
KRIC 220532Z 2206/2306 36008KT P6SM OVC006
      TEMPO 2206/2210 2SM BR OVC003
     FM221000 35004KT 2SM BR OVC003
     FM221500 34006KT 4SM BR OVC008
     FM221800 36007KT P6SM -RA OVC015
     FM230000 36005KT P6SM OVC010=



    US Dept of Commerce
    National Oceanic and Atmospheric Administration
    National Weather Service
    1325 East West Highway
    Silver Spring, MD 20910
    Page Author: NWS Internet Services Team
Disclaimer
Information Quality
Credits
Glossary
Privacy Policy
Freedom of Information Act (FOIA)
About Us
Career Opportunities